Terminal Aerodrome Forecast
Issued by NWS

Home | Current Version | Previous Version | Text Only | Print | Product List | Glossary On
Versions: 1 2 3 4 5 6 7 8 9 10 11 12 13 14 15 16 17 18 19 20 21 22 23 24 25 26 27 28 29 30 31 32 33 34 35 36 37 38 39 40 41 42 43 44 45 46 47 48 49 50
000
FTUS45 KBOU 280548
TAFBJC
TAF
KBJC 280548Z 2806/0106 27004KT P6SM FEW040 BKN080
     FM281000 30005KT P6SM FEW005 SCT100
     FM281200 35005KT P6SM VCFG BKN005
     FM281600 05005KT P6SM SCT005 SCT025
     FM282000 01006KT 5SM -SHSN FEW008 BKN025 OVC040 PROB30
      2820/2824 3SM -SN BKN010
     FM010000 35006KT 2SM -SN BR BKN008 OVC015
      TEMPO 0102/0106 3/4SM -SN BR OVC004=

USA.gov is the U.S. government's official web portal to all federal, state and local government web resources and services.